createdAt,value
2017-07-25T00:00:40.295Z,25.06
2017-07-25T00:01:40.636Z,25.02
2017-07-25T00:02:40.350Z,25
2017-07-25T00:03:40.689Z,24.99
2017-07-25T00:04:40.406Z,25.02
2017-07-25T00:05:40.738Z,24.99
2017-07-25T00:06:40.143Z,24.99
2017-07-25T00:07:40.802Z,25.02
2017-07-25T00:08:40.523Z,25.02
2017-07-25T00:09:40.576Z,25.05
2017-07-25T00:10:40.884Z,24.99
2017-07-25T00:11:40.916Z,25.02
2017-07-25T00:12:40.625Z,24.96
2017-07-25T00:13:40.657Z,25.03
2017-07-25T00:14:40.685Z,25
2017-07-25T00:15:40.715Z,25
2017-07-25T00:16:40.738Z,25.02
2017-07-25T00:17:41.085Z,25.06
2017-07-25T00:18:40.809Z,25.02
2017-07-25T00:19:41.385Z,25.02
2017-07-25T00:20:40.842Z,24.98
2017-07-25T00:21:40.885Z,24.96
2017-07-25T00:22:40.597Z,24.93
2017-07-25T00:23:40.930Z,25
2017-07-25T00:24:40.902Z,25
2017-07-25T00:25:41.320Z,24.99
2017-07-25T00:26:41.046Z,24.93
2017-07-25T00:27:41.361Z,25.08
2017-07-25T00:28:41.074Z,25.03
2017-07-25T00:29:41.354Z,25.05
2017-07-25T00:30:41.130Z,25.06
2017-07-25T00:31:41.471Z,25.02
2017-07-25T00:32:41.497Z,25.02
2017-07-25T00:33:41.213Z,25.08
2017-07-25T00:34:41.855Z,25.06
2017-07-25T00:35:41.258Z,25.06
2017-07-25T00:36:41.608Z,25
2017-07-25T00:37:41.330Z,25.03
2017-07-25T00:38:41.353Z,25.05
2017-07-25T00:39:41.325Z,25.06
2017-07-25T00:40:41.722Z,25.02
2017-07-25T00:41:41.752Z,25
2017-07-25T00:42:41.791Z,25.08
2017-07-25T00:43:41.813Z,25.05
2017-07-25T00:44:42.086Z,24.98
2017-07-25T00:45:41.856Z,25.03
2017-07-25T00:46:41.574Z,25.03
2017-07-25T00:47:41.916Z,25.06
2017-07-25T00:48:41.317Z,25.02
2017-07-25T00:49:41.959Z,25.03
2017-07-25T00:50:41.684Z,25.02
2017-07-25T00:51:41.718Z,24.99
2017-07-25T00:52:42.053Z,25.05
2017-07-25T00:53:42.082Z,24.99
2017-07-25T00:54:42.362Z,24.99
2017-07-25T00:55:41.847Z,24.99
2017-07-25T00:56:42.167Z,25.02
2017-07-25T00:57:42.193Z,25.02
2017-07-25T00:58:42.221Z,25.02
2017-07-25T00:59:42.194Z,25.03
2017-07-25T01:00:41.958Z,24.98
2017-07-25T01:01:41.988Z,25.06
2017-07-25T01:02:42.021Z,24.96
2017-07-25T01:03:42.362Z,24.98
2017-07-25T01:04:42.375Z,25
2017-07-25T01:05:42.423Z,25.02
2017-07-25T01:06:42.444Z,25
2017-07-25T01:07:42.161Z,25
2017-07-25T01:08:42.500Z,25.03
2017-07-25T01:09:42.466Z,24.99
2017-07-25T01:10:42.557Z,24.99
2017-07-25T01:11:41.955Z,24.99
2017-07-25T01:12:42.613Z,24.96
2017-07-25T01:13:42.326Z,24.96
2017-07-25T01:14:42.653Z,25.03
2017-07-25T01:15:42.375Z,24.96
2017-07-25T01:16:42.719Z,24.96
2017-07-25T01:17:42.457Z,24.98
2017-07-25T01:18:42.773Z,24.96
2017-07-25T01:19:43.050Z,24.96
2017-07-25T01:20:42.831Z,25
2017-07-25T01:21:42.859Z,24.91
2017-07-25T01:22:42.576Z,24.95
2017-07-25T01:23:42.928Z,24.95
2017-07-25T01:24:43.247Z,25
2017-07-25T01:25:42.654Z,24.93
2017-07-25T01:26:42.707Z,24.96
2017-07-25T01:27:42.716Z,24.96
2017-07-25T01:28:42.745Z,25.02
2017-07-25T01:29:43.041Z,24.9
2017-07-25T01:30:43.115Z,25.02
2017-07-25T01:31:42.828Z,24.88
2017-07-25T01:32:42.857Z,24.91
2017-07-25T01:33:43.194Z,24.91
2017-07-25T01:34:43.210Z,24.9
2017-07-25T01:35:42.938Z,24.88
2017-07-25T01:36:42.964Z,24.93
2017-07-25T01:37:43.313Z,24.9
2017-07-25T01:38:43.341Z,24.87
2017-07-25T01:39:43.343Z,24.9
2017-07-25T01:40:42.763Z,24.88
2017-07-25T01:41:43.416Z,24.87
2017-07-25T01:42:42.823Z,24.88
2017-07-25T01:43:43.474Z,24.85
2017-07-25T01:44:43.490Z,24.91
2017-07-25T01:45:43.531Z,24.87
2017-07-25T01:46:43.249Z,24.87
2017-07-25T01:47:42.961Z,24.9
2017-07-25T01:48:43.609Z,24.88
2017-07-25T01:49:43.574Z,24.9
2017-07-25T01:50:43.667Z,24.87
2017-07-25T01:51:43.693Z,24.88
2017-07-25T01:52:43.409Z,24.88
2017-07-25T01:53:43.434Z,24.88
2017-07-25T01:54:43.715Z,24.9
2017-07-25T01:55:43.491Z,24.93
2017-07-25T01:56:43.523Z,24.84
2017-07-25T01:57:43.549Z,24.87
2017-07-25T01:58:43.883Z,24.87
2017-07-25T01:59:43.898Z,24.85
2017-07-25T02:00:43.316Z,24.85
2017-07-25T02:01:43.680Z,24.88
2017-07-25T02:02:43.686Z,24.85
2017-07-25T02:03:44.030Z,24.88
2017-07-25T02:04:43.682Z,24.87
2017-07-25T02:05:43.460Z,24.85
2017-07-25T02:06:44.107Z,24.9
2017-07-25T02:07:43.825Z,24.87
2017-07-25T02:08:44.167Z,24.93
2017-07-25T02:09:43.864Z,24.88
2017-07-25T02:10:44.221Z,24.88
2017-07-25T02:11:44.257Z,24.88
2017-07-25T02:12:44.280Z,24.91
2017-07-25T02:13:44.311Z,24.88
2017-07-25T02:14:44.266Z,24.87
2017-07-25T02:15:44.360Z,24.91
2017-07-25T02:16:44.392Z,24.85
2017-07-25T02:17:44.110Z,24.9
2017-07-25T02:18:44.438Z,24.88
2017-07-25T02:19:44.406Z,24.87
2017-07-25T02:20:44.190Z,24.85
2017-07-25T02:21:44.525Z,24.9
2017-07-25T02:22:44.243Z,24.88
2017-07-25T02:23:44.584Z,24.87
2017-07-25T02:24:44.594Z,24.84
2017-07-25T02:25:44.635Z,24.88
2017-07-25T02:26:44.664Z,24.88
2017-07-25T02:27:44.378Z,24.88
2017-07-25T02:28:44.407Z,24.84
2017-07-25T02:29:44.998Z,24.84
2017-07-25T02:30:44.780Z,24.87
2017-07-25T02:31:44.805Z,24.9
2017-07-25T02:32:44.838Z,24.77
2017-07-25T02:33:44.542Z,24.83
2017-07-25T02:34:45.183Z,24.84
2017-07-25T02:35:44.603Z,24.83
2017-07-25T02:36:44.631Z,24.84
2017-07-25T02:37:44.657Z,24.83
2017-07-25T02:38:44.683Z,24.81
2017-07-25T02:39:44.715Z,24.81
2017-07-25T02:40:44.740Z,24.78
2017-07-25T02:41:44.764Z,24.78
2017-07-25T02:42:45.106Z,24.81
2017-07-25T02:43:44.828Z,24.81
2017-07-25T02:44:44.848Z,24.85
2017-07-25T02:45:45.191Z,24.81
2017-07-25T02:46:45.241Z,24.85
2017-07-25T02:47:44.937Z,24.73
2017-07-25T02:48:44.962Z,24.76
2017-07-25T02:49:44.675Z,24.81
2017-07-25T02:50:45.021Z,24.83
2017-07-25T02:51:45.045Z,24.8
2017-07-25T02:52:45.393Z,24.8
2017-07-25T02:53:45.098Z,24.83
2017-07-25T02:54:45.439Z,24.77
2017-07-25T02:55:45.160Z,24.69
2017-07-25T02:56:45.181Z,24.76
2017-07-25T02:57:45.530Z,24.8
2017-07-25T02:58:45.261Z,24.77
2017-07-25T02:59:45.574Z,24.78
2017-07-25T03:00:45.860Z,24.78
2017-07-25T03:01:45.331Z,24.84
2017-07-25T03:02:45.667Z,24.83
2017-07-25T03:03:45.403Z,24.78
2017-07-25T03:04:45.714Z,24.76
2017-07-25T03:05:45.737Z,24.73
2017-07-25T03:06:45.773Z,24.78
2017-07-25T03:07:45.490Z,24.83
2017-07-25T03:08:45.514Z,24.77
2017-07-25T03:09:45.546Z,24.71
2017-07-25T03:10:45.821Z,24.67
2017-07-25T03:11:45.284Z,24.76
2017-07-25T03:12:45.633Z,24.64
2017-07-25T03:13:45.962Z,24.69
2017-07-25T03:14:46.002Z,24.61
2017-07-25T03:15:46.276Z,24.77
2017-07-25T03:16:46.052Z,24.65
2017-07-25T03:17:45.761Z,24.69
2017-07-25T03:18:45.791Z,24.71
2017-07-25T03:19:45.523Z,24.76
2017-07-25T03:20:46.156Z,24.65
2017-07-25T03:21:45.561Z,24.67
2017-07-25T03:22:45.906Z,24.67
2017-07-25T03:23:45.622Z,24.68
2017-07-25T03:24:46.016Z,24.71
2017-07-25T03:25:46.600Z,24.65
2017-07-25T03:26:46.017Z,24.73
2017-07-25T03:27:46.082Z,24.76
2017-07-25T03:28:46.071Z,24.71
2017-07-25T03:29:46.114Z,24.69
2017-07-25T03:30:46.757Z,24.69
2017-07-25T03:31:46.473Z,24.69
2017-07-25T03:32:46.186Z,24.68
2017-07-25T03:33:46.208Z,24.69
2017-07-25T03:34:46.556Z,24.71
2017-07-25T03:35:46.196Z,24.67
2017-07-25T03:36:46.298Z,24.71
2017-07-25T03:37:46.641Z,24.69
2017-07-25T03:38:46.656Z,24.67
2017-07-25T03:39:46.376Z,24.68
2017-07-25T03:40:46.716Z,24.68
2017-07-25T03:41:46.745Z,24.77
2017-07-25T03:42:46.471Z,24.68
2017-07-25T03:43:46.486Z,24.76
2017-07-25T03:44:46.522Z,24.68
2017-07-25T03:45:46.837Z,24.65
2017-07-25T03:46:46.881Z,24.64
2017-07-25T03:47:46.909Z,24.73
2017-07-25T03:48:46.622Z,24.69
2017-07-25T03:49:46.960Z,24.73
2017-07-25T03:50:47.344Z,24.62
2017-07-25T03:51:47.036Z,24.83
2017-07-25T03:52:47.042Z,24.64
2017-07-25T03:53:47.069Z,24.71
2017-07-25T03:54:46.475Z,24.81
2017-07-25T03:55:46.817Z,24.83
2017-07-25T03:56:46.838Z,24.77
2017-07-25T03:57:47.191Z,24.65
2017-07-25T03:58:46.906Z,24.64
2017-07-25T03:59:47.240Z,24.76
2017-07-25T04:00:47.269Z,24.68
2017-07-25T04:01:46.988Z,24.67
2017-07-25T04:02:47.327Z,24.76
2017-07-25T04:03:47.352Z,24.71
2017-07-25T04:04:46.770Z,24.71
2017-07-25T04:05:47.095Z,24.77
2017-07-25T04:06:47.427Z,24.77
2017-07-25T04:07:47.462Z,24.84
2017-07-25T04:08:47.487Z,24.64
2017-07-25T04:09:47.524Z,24.65
2017-07-25T04:10:47.245Z,24.67
2017-07-25T04:11:47.574Z,24.73
2017-07-25T04:12:47.299Z,24.64
2017-07-25T04:13:47.628Z,24.73
2017-07-25T04:14:47.348Z,24.71
2017-07-25T04:15:47.061Z,24.65
2017-07-25T04:16:47.716Z,24.73
2017-07-25T04:17:47.123Z,24.61
2017-07-25T04:18:47.454Z,24.83
2017-07-25T04:19:47.483Z,24.69
2017-07-25T04:20:47.517Z,24.69
2017-07-25T04:21:47.534Z,24.69
2017-07-25T04:22:47.567Z,24.73
2017-07-25T04:23:47.905Z,24.71
2017-07-25T04:24:47.927Z,24.69
2017-07-25T04:25:47.649Z,24.73
2017-07-25T04:26:47.365Z,24.71
2017-07-25T04:27:47.706Z,24.67
2017-07-25T04:28:48.038Z,24.73
2017-07-25T04:29:47.761Z,24.69
2017-07-25T04:30:47.793Z,24.69
2017-07-25T04:31:48.127Z,24.68
2017-07-25T04:32:47.843Z,24.68
2017-07-25T04:33:48.187Z,24.69
2017-07-25T04:34:47.900Z,24.77
2017-07-25T04:35:47.924Z,24.65
2017-07-25T04:36:48.270Z,24.68
2017-07-25T04:37:48.301Z,24.76
2017-07-25T04:38:48.010Z,24.69
2017-07-25T04:39:48.036Z,24.77
2017-07-25T04:40:47.753Z,24.6
2017-07-25T04:41:48.410Z,24.69
2017-07-25T04:42:48.118Z,24.6
2017-07-25T04:43:48.150Z,24.65
2017-07-25T04:44:48.176Z,24.69
2017-07-25T04:45:48.200Z,24.62
2017-07-25T04:46:48.550Z,24.61
2017-07-25T04:47:48.262Z,24.68
2017-07-25T04:48:47.971Z,24.69
2017-07-25T04:49:48.306Z,24.71
2017-07-25T04:50:48.676Z,24.64
2017-07-25T04:51:48.685Z,24.71
2017-07-25T04:52:48.398Z,24.71
2017-07-25T04:53:48.422Z,24.68
2017-07-25T04:54:48.448Z,24.71
2017-07-25T04:55:48.480Z,24.65
2017-07-25T04:56:48.766Z,24.62
2017-07-25T04:57:48.538Z,24.68
2017-07-25T04:58:48.559Z,24.64
2017-07-25T04:59:48.900Z,24.61
2017-07-25T05:00:48.616Z,24.68
2017-07-25T05:01:49.216Z,24.65
2017-07-25T05:02:48.358Z,24.68
2017-07-25T05:03:49.013Z,24.58
2017-07-25T05:04:49.033Z,24.61
2017-07-25T05:05:49.077Z,24.58
2017-07-25T05:06:49.081Z,24.6
2017-07-25T05:07:49.122Z,24.58
2017-07-25T05:08:48.843Z,24.58
2017-07-25T05:09:49.196Z,24.62
2017-07-25T05:10:48.891Z,24.67
2017-07-25T05:11:48.861Z,24.61
2017-07-25T05:12:48.955Z,24.61
2017-07-25T05:13:49.288Z,24.64
2017-07-25T05:14:49.000Z,24.57
2017-07-25T05:15:49.070Z,24.52
2017-07-25T05:16:49.320Z,24.55
2017-07-25T05:17:49.092Z,24.6
2017-07-25T05:18:49.110Z,24.61
2017-07-25T05:19:49.139Z,24.55
2017-07-25T05:20:49.481Z,24.58
2017-07-25T05:21:49.449Z,24.62
2017-07-25T05:22:49.538Z,24.61
2017-07-25T05:23:49.560Z,24.6
2017-07-25T05:24:49.279Z,24.64
2017-07-25T05:25:49.313Z,24.64
2017-07-25T05:26:49.593Z,24.58
2017-07-25T05:27:49.370Z,24.52
2017-07-25T05:28:49.392Z,24.64
2017-07-25T05:29:49.733Z,24.61
2017-07-25T05:30:49.756Z,24.69
2017-07-25T05:31:50.086Z,24.47
2017-07-25T05:32:49.503Z,24.64
2017-07-25T05:33:49.528Z,24.55
2017-07-25T05:34:49.869Z,24.57
2017-07-25T05:35:49.588Z,24.55
2017-07-25T05:36:49.873Z,24.52
2017-07-25T05:37:49.947Z,24.57
2017-07-25T05:38:49.667Z,24.55
2017-07-25T05:39:49.688Z,24.65
2017-07-25T05:40:49.724Z,24.58
2017-07-25T05:41:50.361Z,24.61
2017-07-25T05:42:50.091Z,24.53
2017-07-25T05:43:50.112Z,24.57
2017-07-25T05:44:49.524Z,24.55
2017-07-25T05:45:50.172Z,24.55
2017-07-25T05:46:49.578Z,24.52
2017-07-25T05:47:50.230Z,24.55
2017-07-25T05:48:50.259Z,24.55
2017-07-25T05:49:50.285Z,24.58
2017-07-25T05:50:50.001Z,24.65
2017-07-25T05:51:50.038Z,24.61
2017-07-25T05:52:50.058Z,24.53
2017-07-25T05:53:50.399Z,24.6
2017-07-25T05:54:50.420Z,24.58
2017-07-25T05:55:50.141Z,24.6
2017-07-25T05:56:50.164Z,24.57
2017-07-25T05:57:50.506Z,24.57
2017-07-25T05:58:49.911Z,24.57
2017-07-25T05:59:50.560Z,24.6
2017-07-25T06:00:50.593Z,24.55
2017-07-25T06:01:50.305Z,24.58
2017-07-25T06:02:50.318Z,24.65
2017-07-25T06:03:50.359Z,24.53
2017-07-25T06:04:50.697Z,24.55
2017-07-25T06:05:50.400Z,24.53
2017-07-25T06:06:50.752Z,24.67
2017-07-25T06:07:50.781Z,24.61
2017-07-25T06:08:50.810Z,24.64
2017-07-25T06:09:50.836Z,24.6
2017-07-25T06:10:50.862Z,24.52
2017-07-25T06:11:50.894Z,24.53
2017-07-25T06:12:50.610Z,24.62
2017-07-25T06:13:50.635Z,24.6
2017-07-25T06:14:50.975Z,24.6
2017-07-25T06:15:50.375Z,24.52
2017-07-25T06:16:50.721Z,24.55
2017-07-25T06:17:50.749Z,24.58
2017-07-25T06:18:51.086Z,24.53
2017-07-25T06:19:50.804Z,24.47
2017-07-25T06:20:50.824Z,24.64
2017-07-25T06:21:51.173Z,24.57
2017-07-25T06:22:50.577Z,24.57
2017-07-25T06:23:50.915Z,24.53
2017-07-25T06:24:50.936Z,24.57
2017-07-25T06:25:51.289Z,24.52
2017-07-25T06:26:50.997Z,24.58
2017-07-25T06:27:51.333Z,24.53
2017-07-25T06:28:51.052Z,24.47
2017-07-25T06:29:51.389Z,24.5
2017-07-25T06:30:51.113Z,24.62
2017-07-25T06:31:51.471Z,24.52
2017-07-25T06:32:50.851Z,24.58
2017-07-25T06:33:51.507Z,24.52
2017-07-25T06:34:51.536Z,24.6
2017-07-25T06:35:51.270Z,24.45
2017-07-25T06:36:51.594Z,24.55
2017-07-25T06:37:51.308Z,24.57
2017-07-25T06:38:51.636Z,24.58
2017-07-25T06:39:51.668Z,24.55
2017-07-25T06:40:51.388Z,24.52
2017-07-25T06:41:51.411Z,24.58
2017-07-25T06:42:51.439Z,24.55
2017-07-25T06:43:51.780Z,24.55
2017-07-25T06:44:51.803Z,24.57
2017-07-25T06:45:51.521Z,24.6
2017-07-25T06:46:51.545Z,24.58
2017-07-25T06:47:51.883Z,24.55
2017-07-25T06:48:51.914Z,24.52
2017-07-25T06:49:51.944Z,24.53
2017-07-25T06:50:51.972Z,24.53
2017-07-25T06:51:52.005Z,24.5
2017-07-25T06:52:52.274Z,24.57
2017-07-25T06:53:52.055Z,24.58
2017-07-25T06:54:51.771Z,24.62
2017-07-25T06:55:52.116Z,24.55
2017-07-25T06:56:51.505Z,24.61
2017-07-25T06:57:52.411Z,24.64
2017-07-25T06:58:51.886Z,24.61
2017-07-25T06:59:52.213Z,24.6
2017-07-25T07:00:52.253Z,24.62
2017-07-25T07:01:52.294Z,24.61
2017-07-25T07:02:52.550Z,24.62
2017-07-25T07:03:52.322Z,24.67
2017-07-25T07:04:52.357Z,24.61
2017-07-25T07:05:51.760Z,24.58
2017-07-25T07:06:52.409Z,24.64
2017-07-25T07:07:52.686Z,24.67
2017-07-25T07:08:52.473Z,24.5
2017-07-25T07:09:52.499Z,24.55
2017-07-25T07:10:52.536Z,24.65
2017-07-25T07:11:52.241Z,24.57
2017-07-25T07:12:52.569Z,24.6
2017-07-25T07:13:52.607Z,24.65
2017-07-25T07:14:52.336Z,24.53
2017-07-25T07:15:52.354Z,24.58
2017-07-25T07:16:52.386Z,24.57
2017-07-25T07:17:52.970Z,24.55
2017-07-25T07:18:52.440Z,24.57
2017-07-25T07:19:52.460Z,24.53
2017-07-25T07:20:52.805Z,24.62
2017-07-25T07:21:52.830Z,24.52
2017-07-25T07:22:53.109Z,24.53
2017-07-25T07:23:52.572Z,24.65
2017-07-25T07:24:52.911Z,24.62
2017-07-25T07:25:52.313Z,24.6
2017-07-25T07:26:52.969Z,24.65
2017-07-25T07:27:53.244Z,24.62
2017-07-25T07:28:52.715Z,24.61
2017-07-25T07:29:53.045Z,24.61
2017-07-25T07:30:52.769Z,24.62
2017-07-25T07:31:52.802Z,24.61
2017-07-25T07:32:53.135Z,24.64
2017-07-25T07:33:53.159Z,24.65
2017-07-25T07:34:52.878Z,24.52
2017-07-25T07:35:53.215Z,24.58
2017-07-25T07:36:53.257Z,24.64
2017-07-25T07:37:53.277Z,24.52
2017-07-25T07:38:53.302Z,24.5
2017-07-25T07:39:53.332Z,24.53
2017-07-25T07:40:53.028Z,24.61
2017-07-25T07:41:53.385Z,24.65
2017-07-25T07:42:53.106Z,24.58
2017-07-25T07:43:53.447Z,24.61
2017-07-25T07:44:53.503Z,24.53
2017-07-25T07:45:53.181Z,24.6
2017-07-25T07:46:53.214Z,24.6
2017-07-25T07:47:53.546Z,24.53
2017-07-25T07:48:53.271Z,24.64
2017-07-25T07:49:53.300Z,24.6
2017-07-25T07:50:53.649Z,24.53
2017-07-25T07:51:53.041Z,24.61
2017-07-25T07:52:53.698Z,24.62
2017-07-25T07:53:53.098Z,24.6
2017-07-25T07:54:53.431Z,24.53
2017-07-25T07:55:53.777Z,24.61
2017-07-25T07:56:53.800Z,24.58
2017-07-25T07:57:53.531Z,24.62
2017-07-25T07:58:54.155Z,24.6
2017-07-25T07:59:53.576Z,24.55
2017-07-25T08:00:53.626Z,24.65
2017-07-25T08:01:53.948Z,24.65
2017-07-25T08:02:53.354Z,24.64
2017-07-25T08:03:53.931Z,24.65
2017-07-25T08:04:54.028Z,24.68
2017-07-25T08:05:53.743Z,24.6
2017-07-25T08:06:53.774Z,24.67
2017-07-25T08:07:54.109Z,24.69
2017-07-25T08:08:54.435Z,24.69
2017-07-25T08:09:53.844Z,24.65
2017-07-25T08:10:54.189Z,24.71
2017-07-25T08:11:54.222Z,24.6
2017-07-25T08:12:53.933Z,24.69
2017-07-25T08:13:53.959Z,24.71
2017-07-25T08:14:53.983Z,24.64
2017-07-25T08:15:54.332Z,24.78
2017-07-25T08:16:54.044Z,24.65
2017-07-25T08:17:54.394Z,24.67
2017-07-25T08:18:54.355Z,24.58
2017-07-25T08:19:54.437Z,24.65
2017-07-25T08:20:54.468Z,24.52
2017-07-25T08:21:54.187Z,24.65
2017-07-25T08:22:54.210Z,24.68
2017-07-25T08:23:54.536Z,24.67
2017-07-25T08:24:54.267Z,24.67
2017-07-25T08:25:54.301Z,24.62
2017-07-25T08:26:54.633Z,24.71
2017-07-25T08:27:54.654Z,24.73
2017-07-25T08:28:54.682Z,24.53
2017-07-25T08:29:54.090Z,24.53
2017-07-25T08:30:54.437Z,24.61
2017-07-25T08:31:54.456Z,24.65
2017-07-25T08:32:54.490Z,24.61
2017-07-25T08:33:54.822Z,24.6
2017-07-25T08:34:54.863Z,24.64
2017-07-25T08:35:54.256Z,24.6
2017-07-25T08:36:54.595Z,24.64
2017-07-25T08:37:54.942Z,24.6
2017-07-25T08:38:55.219Z,24.64
2017-07-25T08:39:54.684Z,24.65
2017-07-25T08:40:55.021Z,24.58
2017-07-25T08:41:54.748Z,24.64
2017-07-25T08:42:55.091Z,24.62
2017-07-25T08:43:54.797Z,24.55
2017-07-25T08:44:55.129Z,24.61
2017-07-25T08:45:54.852Z,24.6
2017-07-25T08:46:54.567Z,24.68
2017-07-25T08:47:55.226Z,24.6
2017-07-25T08:48:54.618Z,24.71
2017-07-25T08:49:54.963Z,24.6
2017-07-25T08:50:55.305Z,24.6
2017-07-25T08:51:55.026Z,24.64
2017-07-25T08:52:54.758Z,24.6
2017-07-25T08:53:55.075Z,24.61
2017-07-25T08:54:55.104Z,24.62
2017-07-25T08:55:55.136Z,24.64
2017-07-25T08:56:55.157Z,24.64
2017-07-25T08:57:55.186Z,24.58
2017-07-25T08:58:55.522Z,24.57
2017-07-25T08:59:55.547Z,24.52
2017-07-25T09:00:55.585Z,24.67
2017-07-25T09:01:55.309Z,24.67
2017-07-25T09:02:55.634Z,24.57
2017-07-25T09:03:55.349Z,24.58
2017-07-25T09:04:55.999Z,24.67
2017-07-25T09:05:55.720Z,24.53
2017-07-25T09:06:55.433Z,24.6
2017-07-25T09:07:55.150Z,24.62
2017-07-25T09:08:55.806Z,24.55
2017-07-25T09:09:55.768Z,24.5
2017-07-25T09:10:55.868Z,24.53
2017-07-25T09:11:55.260Z,24.57
2017-07-25T09:12:55.917Z,24.55
2017-07-25T09:13:55.630Z,24.57
2017-07-25T09:14:56.223Z,24.62
2017-07-25T09:15:55.383Z,24.5
2017-07-25T09:16:56.117Z,24.5
2017-07-25T09:17:56.056Z,24.58
2017-07-25T09:18:55.766Z,24.55
2017-07-25T09:19:56.062Z,24.45
2017-07-25T09:20:55.823Z,24.43
2017-07-25T09:21:55.852Z,24.5
2017-07-25T09:22:56.197Z,24.57
2017-07-25T09:23:55.598Z,24.55
2017-07-25T09:24:56.543Z,24.47
2017-07-25T09:25:56.277Z,24.47
2017-07-25T09:26:56.337Z,24.58
2017-07-25T09:27:56.330Z,24.53
2017-07-25T09:28:56.052Z,24.58
2017-07-25T09:29:56.642Z,24.53
2017-07-25T09:30:56.105Z,24.49
2017-07-25T09:31:56.436Z,24.47
2017-07-25T09:32:56.166Z,24.55
2017-07-25T09:33:56.188Z,24.47
2017-07-25T09:34:56.492Z,24.45
2017-07-25T09:35:56.551Z,24.45
2017-07-25T09:36:55.958Z,24.57
2017-07-25T09:37:55.984Z,24.52
2017-07-25T09:38:56.322Z,24.53
2017-07-25T09:39:56.819Z,24.46
2017-07-25T09:40:56.377Z,24.53
2017-07-25T09:41:56.720Z,24.55
2017-07-25T09:42:56.122Z,24.49
2017-07-25T09:43:56.775Z,24.53
2017-07-25T09:44:56.743Z,24.57
2017-07-25T09:45:56.518Z,24.6
2017-07-25T09:46:56.545Z,24.52
2017-07-25T09:47:56.888Z,24.57
2017-07-25T09:48:56.608Z,24.58
2017-07-25T09:49:56.885Z,24.5
2017-07-25T09:50:56.972Z,24.52
2017-07-25T09:51:56.685Z,24.5
2017-07-25T09:52:56.712Z,24.57
2017-07-25T09:53:57.054Z,24.57
2017-07-25T09:54:57.334Z,24.61
2017-07-25T09:55:56.484Z,24.57
2017-07-25T09:56:56.511Z,24.55
2017-07-25T09:57:57.162Z,24.57
2017-07-25T09:58:57.219Z,24.62
2017-07-25T09:59:56.903Z,24.62
2017-07-25T10:00:56.935Z,24.64
2017-07-25T10:01:56.965Z,24.62
2017-07-25T10:02:57.297Z,24.64
2017-07-25T10:03:57.334Z,24.65
2017-07-25T10:04:57.379Z,24.62
2017-07-25T10:05:57.084Z,24.61
2017-07-25T10:06:57.417Z,24.67
2017-07-25T10:07:57.440Z,24.69
2017-07-25T10:08:57.470Z,24.69
2017-07-25T10:09:57.188Z,24.67
2017-07-25T10:10:57.216Z,24.58
2017-07-25T10:11:57.260Z,24.71
2017-07-25T10:12:57.585Z,24.71
2017-07-25T10:13:57.294Z,24.65
2017-07-25T10:14:57.647Z,24.65
2017-07-25T10:15:57.668Z,24.71
2017-07-25T10:16:57.384Z,24.67
2017-07-25T10:17:57.409Z,24.67
2017-07-25T10:18:57.745Z,24.78
2017-07-25T10:19:57.775Z,24.78
2017-07-25T10:20:57.493Z,24.83
2017-07-25T10:21:57.522Z,24.78
2017-07-25T10:22:57.545Z,24.84
2017-07-25T10:23:57.573Z,24.87
2017-07-25T10:24:57.919Z,24.87
2017-07-25T10:25:57.948Z,24.87
2017-07-25T10:26:57.969Z,24.99
2017-07-25T10:27:58.009Z,24.99
2017-07-25T10:28:58.026Z,24.99
2017-07-25T10:29:58.051Z,25
2017-07-25T10:30:57.471Z,25.05
2017-07-25T10:31:57.801Z,25.05
2017-07-25T10:32:57.831Z,25.09
2017-07-25T10:33:57.853Z,25.1
2017-07-25T10:34:58.198Z,25.15
2017-07-25T10:35:57.920Z,25.17
2017-07-25T10:36:57.940Z,25.14
2017-07-25T10:37:57.966Z,25.18
2017-07-25T10:38:58.309Z,25.21
2017-07-25T10:39:58.026Z,25.14
2017-07-25T10:40:58.314Z,25.13
2017-07-25T10:41:58.406Z,25.17
2017-07-25T10:42:58.125Z,25.1
2017-07-25T10:43:58.463Z,25.24
2017-07-25T10:44:58.481Z,25.2
2017-07-25T10:45:58.796Z,25.2
2017-07-25T10:46:58.555Z,25.18
2017-07-25T10:47:57.940Z,25.24
2017-07-25T10:48:58.283Z,25.25
2017-07-25T10:49:58.000Z,25.18
2017-07-25T10:50:58.900Z,25.23
2017-07-25T10:51:58.697Z,25.27
2017-07-25T10:52:58.407Z,25.39
2017-07-25T10:53:58.751Z,25.33
2017-07-25T10:54:58.769Z,25.38
2017-07-25T10:55:59.039Z,25.35
2017-07-25T10:56:58.827Z,25.38
2017-07-25T10:57:58.539Z,25.38
2017-07-25T10:58:58.869Z,25.32
2017-07-25T10:59:58.906Z,25.39
2017-07-25T11:00:58.923Z,25.35
2017-07-25T11:01:58.971Z,25.42
2017-07-25T11:02:58.678Z,25.35
2017-07-25T11:03:58.706Z,25.46
2017-07-25T11:04:59.047Z,25.42
2017-07-25T11:05:59.372Z,25.46
2017-07-25T11:06:59.110Z,25.46
2017-07-25T11:07:58.818Z,25.47
2017-07-25T11:08:59.167Z,25.54
2017-07-25T11:09:59.192Z,25.52
2017-07-25T11:10:59.468Z,25.4
2017-07-25T11:11:58.936Z,25.47
2017-07-25T11:12:58.966Z,25.45
2017-07-25T11:13:59.307Z,25.4
2017-07-25T11:14:59.023Z,25.39
2017-07-25T11:15:59.624Z,25.35
2017-07-25T11:16:59.388Z,25.33
2017-07-25T11:17:59.422Z,25.33
2017-07-25T11:18:59.139Z,25.36
2017-07-25T11:19:59.164Z,25.36
2017-07-25T11:20:59.760Z,25.4
2017-07-25T11:21:59.228Z,25.4
2017-07-25T11:22:59.250Z,25.38
2017-07-25T11:23:59.278Z,25.35
2017-07-25T11:24:59.620Z,25.43
2017-07-25T11:25:59.961Z,25.45
2017-07-25T11:26:59.672Z,25.35
2017-07-25T11:27:59.715Z,25.4
2017-07-25T11:28:59.423Z,25.33
2017-07-25T11:29:59.446Z,25.33
2017-07-25T11:31:00.091Z,25.35
2017-07-25T11:31:59.198Z,25.24
2017-07-25T11:32:59.862Z,25.25
2017-07-25T11:33:59.269Z,25.32
2017-07-25T11:34:59.283Z,25.18
2017-07-25T11:35:59.877Z,25.21
2017-07-25T11:36:59.965Z,25.15
2017-07-25T11:37:59.994Z,25.14
2017-07-25T11:39:00.026Z,25.17
2017-07-25T11:39:59.741Z,25.1
2017-07-25T11:41:00.327Z,25.1
2017-07-25T11:41:59.797Z,25.15
2017-07-25T11:43:00.136Z,25.18
2017-07-25T11:44:00.162Z,25.2
2017-07-25T11:45:00.183Z,25.27
2017-07-25T11:46:00.472Z,25.2
2017-07-25T11:46:59.933Z,25.45
2017-07-25T11:47:59.962Z,25.42
2017-07-25T11:49:00.302Z,25.55
2017-07-25T11:50:00.331Z,25.65
2017-07-25T11:51:00.662Z,25.76
2017-07-25T11:52:00.389Z,26.01
2017-07-25T11:53:00.105Z,26.09
2017-07-25T11:54:00.158Z,26.23
2017-07-25T11:55:00.163Z,26.37
2017-07-25T11:56:00.749Z,26.5
2017-07-25T11:57:00.553Z,26.67
2017-07-25T11:58:00.561Z,26.76
2017-07-25T11:59:00.605Z,26.8
2017-07-25T12:00:00.627Z,26.81
2017-07-25T12:01:00.903Z,26.92
2017-07-25T12:02:00.681Z,26.91
2017-07-25T12:03:00.390Z,26.87
2017-07-25T12:04:00.750Z,26.84
2017-07-25T12:05:00.768Z,26.8
2017-07-25T12:06:01.058Z,26.8
2017-07-25T12:07:00.828Z,26.73
2017-07-25T12:08:00.870Z,26.66
2017-07-25T12:09:00.891Z,26.65
2017-07-25T12:10:00.924Z,26.55
2017-07-25T12:11:00.629Z,26.55
2017-07-25T12:12:00.984Z,26.4
2017-07-25T12:13:00.697Z,26.37
2017-07-25T12:14:01.035Z,26.32
2017-07-25T12:15:01.062Z,26.23
2017-07-25T12:16:00.732Z,26.1
2017-07-25T12:17:00.810Z,26.15
2017-07-25T12:18:00.833Z,26.09
2017-07-25T12:19:00.866Z,26.01
2017-07-25T12:20:00.588Z,25.92
2017-07-25T12:21:00.917Z,25.85
2017-07-25T12:22:01.277Z,25.77
2017-07-25T12:23:00.993Z,25.73
2017-07-25T12:24:01.006Z,25.69
2017-07-25T12:25:01.048Z,25.64
2017-07-25T12:26:01.012Z,25.64
2017-07-25T12:27:01.409Z,25.6
2017-07-25T12:28:01.132Z,25.58
2017-07-25T12:29:00.844Z,25.52
2017-07-25T12:30:00.895Z,25.46
2017-07-25T12:31:01.208Z,25.55
2017-07-25T12:32:01.562Z,25.51
2017-07-25T12:33:01.275Z,25.5
2017-07-25T12:34:00.990Z,25.6
2017-07-25T12:35:01.638Z,25.57
2017-07-25T12:36:01.659Z,25.57
2017-07-25T12:37:01.701Z,25.58
2017-07-25T12:38:01.726Z,25.72
2017-07-25T12:39:01.759Z,25.77
2017-07-25T12:40:01.783Z,25.91
2017-07-25T12:41:02.115Z,25.88
2017-07-25T12:42:01.845Z,26.01
2017-07-25T12:43:01.567Z,26.09
2017-07-25T12:44:01.596Z,26.25
2017-07-25T12:45:01.937Z,26.21
2017-07-25T12:46:02.215Z,26.32
2017-07-25T12:47:01.700Z,26.39
2017-07-25T12:48:01.726Z,26.43
2017-07-25T12:49:01.742Z,26.55
2017-07-25T12:50:02.086Z,26.58
2017-07-25T12:51:02.116Z,26.55
2017-07-25T12:52:02.148Z,26.55
2017-07-25T12:53:02.181Z,26.65
2017-07-25T12:54:01.892Z,26.65
2017-07-25T12:55:02.227Z,26.63
2017-07-25T12:56:01.960Z,26.63
2017-07-25T12:57:01.982Z,26.66